Time;durP1;ratioP1;P1;durP2;ratioP2;P2;SDS_P1;SDS_P2;PMS_P1;PMS_P2;Temp;Humidity;BMP_temperature;BMP_pressure;BME280_temperature;BME280_humidity;BME280_pressure;Samples;Min_cycle;Max_cycle;Signal;HPM_P1;HPM_P2
2022/06/10 00:00:18;;;;;;;;;;;12.30;95.90;;;;;;6126758;23;20077;-76
2022/06/10 00:02:44;;;;;;;18.27;5.38;;;12.30;96.30;;;;;;6125548;23;19923;-78
2022/06/10 00:05:14;;;;;;;20.85;6.43;;;12.30;95.50;;;;;;6125837;23;20072;-76
2022/06/10 00:07:41;;;;;;;16.33;5.95;;;12.20;96.20;;;;;;6150452;23;20028;-76
2022/06/10 00:10:08;;;;;;;12.95;5.30;;;12.10;96.10;;;;;;6125220;23;20018;-76
2022/06/10 00:12:34;;;;;;;20.08;5.15;;;12.20;95.90;;;;;;6130656;23;20014;-78
2022/06/10 00:15:00;;;;;;;18.83;5.00;;;12.20;96.20;;;;;;6130301;23;20093;-77
2022/06/10 00:17:26;;;;;;;17.65;4.80;;;12.10;96.00;;;;;;6126767;23;20021;-77
2022/06/10 00:19:52;;;;;;;19.58;5.85;;;12.20;96.00;;;;;;6101026;23;20294;-76
2022/06/10 00:22:17;;;;;;;18.15;5.75;;;12.10;95.90;;;;;;6125175;23;20018;-77
2022/06/10 00:24:43;;;;;;;16.15;5.40;;;12.10;96.50;;;;;;6101019;23;20018;-77
2022/06/10 00:27:09;;;;;;;17.17;5.22;;;12.10;96.30;;;;;;6125251;23;20021;-77
2022/06/10 00:29:34;;;;;;;18.27;5.68;;;12.10;96.00;;;;;;6101098;23;20018;-76
2022/06/10 00:32:00;;;;;;;13.15;6.40;;;12.10;97.20;;;;;;6125521;23;20010;-77
2022/06/10 00:34:26;;;;;;;16.58;5.38;;;12.10;97.20;;;;;;6125845;23;20054;-76
2022/06/10 00:36:51;;;;;;;20.45;5.60;;;12.00;97.00;;;;;;6100637;23;20018;-77
2022/06/10 00:39:17;;;;;;;14.73;5.37;;;12.00;97.00;;;;;;6101249;23;20026;-76
2022/06/10 00:41:44;;;;;;;15.60;5.63;;;12.00;97.00;;;;;;6125352;23;20045;-76
2022/06/10 00:44:34;;;;;;;17.17;5.88;;;11.90;96.80;;;;;;6125456;23;20037;-77
2022/06/10 00:47:02;;;;;;;19.17;6.57;;;11.90;97.30;;;;;;6125452;23;20014;-77
2022/06/10 00:49:31;;;;;;;17.40;6.50;;;11.90;97.70;;;;;;6125568;23;20026;-77
2022/06/10 00:51:58;;;;;;;21.23;6.32;;;11.90;97.50;;;;;;6125295;23;20018;-77
2022/06/10 00:54:29;;;;;;;17.05;6.00;;;12.00;97.50;;;;;;6128247;23;20018;-77
2022/06/10 00:57:04;;;;;;;17.50;8.15;;;11.90;97.20;;;;;;6127163;23;20028;-76
2022/06/10 00:59:38;;;;;;;15.80;6.13;;;11.90;97.60;;;;;;6125536;23;20097;-78
2022/06/10 01:02:08;;;;;;;24.77;7.93;;;11.80;97.20;;;;;;6124869;23;20014;-76
2022/06/10 01:04:33;;;;;;;18.85;6.40;;;11.80;97.70;;;;;;6125462;23;20014;-77
2022/06/10 01:06:59;;;;;;;15.35;6.47;;;11.80;98.00;;;;;;6101095;23;20444;-77
2022/06/10 01:09:27;;;;;;;24.75;8.88;;;11.80;98.20;;;;;;6100370;23;20113;-76
2022/06/10 01:12:12;;;;;;;17.27;6.75;;;11.90;98.70;;;;;;6124707;23;20436;-77
2022/06/10 01:14:44;;;;;;;20.05;6.60;;;11.90;97.70;;;;;;6125096;23;20021;-77
2022/06/10 01:17:25;;;;;;;16.70;7.30;;;12.00;98.00;;;;;;6099269;23;20448;-77
2022/06/10 01:20:12;;;;;;;16.13;6.38;;;12.00;97.90;;;;;;6100762;23;20030;-77
2022/06/10 01:23:02;;;;;;;15.60;6.53;;;12.00;97.70;;;;;;6099425;23;20052;-77
2022/06/10 01:25:50;;;;;;;18.83;6.55;;;11.90;98.80;;;;;;6100364;23;20106;-77
2022/06/10 01:28:31;;;;;;;22.38;6.35;;;11.90;97.60;;;;;;6100699;23;20032;-76
2022/06/10 01:31:17;;;;;;;21.08;6.50;;;11.90;97.70;;;;;;6100788;23;20022;-77
2022/06/10 01:34:06;;;;;;;22.20;5.93;;;11.90;98.10;;;;;;6125510;23;20018;-76
2022/06/10 01:36:54;;;;;;;24.48;6.90;;;11.80;98.30;;;;;;6124901;23;20519;-77
2022/06/10 01:39:43;;;;;;;17.77;6.38;;;11.80;97.60;;;;;;6124348;23;20022;-76
2022/06/10 01:42:57;;;;;;;22.35;5.90;;;11.70;98.40;;;;;;6123889;23;20045;-77
2022/06/10 01:45:39;;;;;;;24.88;7.80;;;11.70;97.80;;;;;;6122080;23;20022;-77
2022/06/10 01:48:09;;;;;;;14.32;5.72;;;11.70;98.40;;;;;;6097871;23;20026;-77
2022/06/10 01:50:56;;;;;;;21.35;6.57;;;11.70;98.20;;;;;;6124864;23;20400;-77
2022/06/10 01:53:42;;;;;;;23.55;5.82;;;11.70;98.30;;;;;;6124365;23;20014;-76
2022/06/10 01:56:23;;;;;;;24.52;6.22;;;11.70;98.90;;;;;;6124714;23;20017;-77
2022/06/10 01:59:10;;;;;;;18.27;6.57;;;11.70;98.60;;;;;;6124779;23;20026;-77
2022/06/10 02:01:40;;;;;;;23.50;5.80;;;11.70;98.30;;;;;;6125426;23;20068;-77
2022/06/10 02:04:13;;;;;;;27.10;5.78;;;11.70;98.30;;;;;;6124362;23;20029;-74
2022/06/10 02:06:44;;;;;;;15.80;5.93;;;11.70;98.20;;;;;;6126165;23;20537;-75
2022/06/10 02:09:17;;;;;;;22.33;5.88;;;11.70;98.40;;;;;;6126085;23;20031;-75
2022/06/10 02:11:49;;;;;;;20.50;5.43;;;11.70;98.60;;;;;;6127132;23;20044;-75
2022/06/10 02:14:23;;;;;;;24.77;5.78;;;11.70;98.80;;;;;;6126887;23;20026;-75
2022/06/10 02:16:55;;;;;;;24.85;5.90;;;11.70;98.70;;;;;;6126714;23;20018;-75
2022/06/10 02:19:49;;;;;;;23.83;6.60;;;11.70;98.70;;;;;;6126099;23;20021;-74
2022/06/10 02:22:34;;;;;;;18.35;5.25;;;11.70;98.80;;;;;;6126781;23;20351;-74
2022/06/10 02:25:07;;;;;;;24.90;6.35;;;11.70;99.50;;;;;;6127040;23;20014;-77
2022/06/10 02:27:37;;;;;;;27.98;6.18;;;11.70;99.20;;;;;;6126690;23;20056;-77
2022/06/10 02:30:09;;;;;;;23.77;5.53;;;11.80;99.40;;;;;;6128224;23;20018;-79
2022/06/10 02:32:37;;;;;;;28.17;5.65;;;11.80;99.20;;;;;;6107534;23;20046;-78
2022/06/10 02:35:04;;;;;;;27.48;5.72;;;11.80;99.30;;;;;;6131224;23;20021;-76
2022/06/10 02:37:46;;;;;;;23.67;5.63;;;11.80;99.30;;;;;;6126479;23;20487;-77
2022/06/10 02:40:12;;;;;;;18.95;5.45;;;11.80;99.50;;;;;;6101565;23;20093;-77
2022/06/10 02:42:51;;;;;;;17.37;5.40;;;11.80;99.20;;;;;;6124688;23;20049;-76
2022/06/10 02:45:29;;;;;;;23.55;4.82;;;11.80;99.20;;;;;;6126743;23;20021;-76
2022/06/10 02:48:06;;;;;;;24.38;5.85;;;11.80;98.90;;;;;;6101802;23;20164;-77
2022/06/10 02:50:31;;;;;;;16.17;4.82;;;11.70;98.90;;;;;;6126614;23;20018;-77
2022/06/10 02:52:58;;;;;;;21.58;5.80;;;11.70;98.80;;;;;;6101989;23;20037;-78
2022/06/10 02:55:26;;;;;;;20.23;6.07;;;11.70;99.10;;;;;;6126429;23;20025;-77
2022/06/10 03:04:10;;;;;;;22.88;6.13;;;11.80;99.70;;;;;;6124981;23;20022;-76
2022/06/10 03:07:17;;;;;;;31.63;6.07;;;11.80;99.20;;;;;;6125834;23;20017;-77
2022/06/10 03:10:04;;;;;;;15.95;5.63;;;11.80;99.70;;;;;;6126660;23;20036;-77
2022/06/10 03:13:00;;;;;;;23.73;6.00;;;11.80;99.60;;;;;;6125349;23;20104;-77
2022/06/10 03:15:39;;;;;;;24.45;6.75;;;11.90;99.60;;;;;;6126010;23;20024;-76
2022/06/10 03:18:26;;;;;;;24.27;6.38;;;12.00;99.30;;;;;;6126465;23;20101;-77
2022/06/10 03:21:04;;;;;;;17.40;4.45;;;12.00;99.80;;;;;;6101496;23;20025;-77
2022/06/10 03:23:45;;;;;;;27.23;5.53;;;12.10;99.70;;;;;;6125689;23;20018;-76
2022/06/10 03:26:20;;;;;;;19.02;5.38;;;12.10;99.80;;;;;;6125514;23;20096;-77
2022/06/10 03:28:58;;;;;;;19.42;4.85;;;12.10;99.80;;;;;;6126253;23;20025;-77
2022/06/10 03:31:41;;;;;;;20.33;5.13;;;12.10;99.70;;;;;;6126078;23;20107;-77
2022/06/10 03:34:31;;;;;;;24.58;5.78;;;12.10;99.70;;;;;;6126837;23;20014;-77
2022/06/10 03:36:59;;;;;;;21.55;5.13;;;12.10;99.90;;;;;;6093942;23;20402;-77
2022/06/10 03:39:25;;;;;;;19.33;5.20;;;12.10;99.30;;;;;;6048031;23;20451;-77
2022/06/10 03:42:00;;;;;;;;;;;12.10;99.80;;;;;;6048078;23;20018;-77
2022/06/10 03:44:27;;;;;;;21.27;5.00;;;12.10;99.60;;;;;;6071694;23;19928;-76
2022/06/10 03:46:54;;;;;;;15.75;5.47;;;12.20;99.40;;;;;;6048957;23;20018;-76
2022/06/10 03:49:28;;;;;;;20.58;5.82;;;12.20;99.80;;;;;;6048695;23;20026;-77
2022/06/10 03:51:55;;;;;;;20.88;5.85;;;12.20;99.60;;;;;;6072962;23;20471;-77
2022/06/10 03:54:21;;;;;;;25.55;6.60;;;12.30;99.60;;;;;;6072267;23;20467;-77
2022/06/10 03:56:47;;;;;;;18.93;5.17;;;12.30;99.70;;;;;;6072867;23;20101;-77
2022/06/10 03:59:13;;;;;;;24.52;6.00;;;12.40;99.80;;;;;;6120598;23;20278;-77
2022/06/10 04:01:39;;;;;;;20.48;6.47;;;12.40;99.90;;;;;;6120738;23;20016;-76
2022/06/10 04:04:05;;;;;;;20.17;5.40;;;12.50;99.60;;;;;;6096477;23;20023;-77
2022/06/10 04:06:31;;;;;;;21.58;5.45;;;12.60;99.50;;;;;;6073704;23;20018;-78
2022/06/10 04:08:57;;;;;;;22.13;5.60;;;12.60;99.80;;;;;;6090327;23;20070;-76
2022/06/10 04:11:22;;;;;;;20.98;6.13;;;12.60;99.60;;;;;;6054884;23;20081;-75
2022/06/10 04:13:48;;;;;;;13.40;4.47;;;12.70;99.50;;;;;;6095549;23;20014;-75
2022/06/10 04:16:14;;;;;;;17.67;5.37;;;12.70;99.40;;;;;;6047884;23;20277;-75
2022/06/10 04:18:40;;;;;;;19.98;5.68;;;12.70;99.30;;;;;;6096095;23;20251;-75
2022/06/10 04:21:06;;;;;;;19.08;5.43;;;12.70;99.30;;;;;;6096305;23;20018;-75
2022/06/10 04:23:32;;;;;;;16.45;4.72;;;12.80;99.20;;;;;;6072121;23;20341;-76
2022/06/10 04:25:58;;;;;;;21.38;5.38;;;12.70;99.50;;;;;;6072565;23;20073;-75
2022/06/10 04:28:24;;;;;;;20.33;4.70;;;12.90;99.20;;;;;;6047729;23;20389;-75
2022/06/10 04:30:51;;;;;;;16.35;4.97;;;12.80;99.10;;;;;;6071968;23;20022;-76
2022/06/10 04:33:18;;;;;;;17.50;5.60;;;12.80;99.30;;;;;;6048245;23;20080;-76
2022/06/10 04:35:46;;;;;;;19.05;5.80;;;12.80;99.50;;;;;;6075498;23;20019;-76
2022/06/10 04:38:17;;;;;;;17.50;4.65;;;12.80;99.50;;;;;;6100897;23;20022;-76
2022/06/10 04:40:43;;;;;;;16.58;4.95;;;12.80;99.30;;;;;;6101173;23;20049;-76
2022/06/10 04:43:09;;;;;;;19.70;4.97;;;12.80;99.60;;;;;;6076894;23;20018;-75
2022/06/10 04:45:44;;;;;;;14.38;5.68;;;12.80;99.40;;;;;;6077079;23;20037;-75
2022/06/10 04:48:14;;;;;;;19.45;5.10;;;12.90;99.40;;;;;;6077346;23;20021;-75
2022/06/10 04:50:41;;;;;;;22.08;5.53;;;12.90;99.50;;;;;;6077098;23;20022;-75
2022/06/10 04:53:07;;;;;;;20.48;4.70;;;13.00;99.30;;;;;;6077031;23;20054;-75
2022/06/10 04:55:33;;;;;;;17.65;4.43;;;13.10;99.30;;;;;;6125453;23;20041;-75
2022/06/10 04:57:59;;;;;;;20.00;5.03;;;13.10;99.30;;;;;;6101145;23;20014;-75
2022/06/10 05:00:48;;;;;;;17.77;5.07;;;13.10;99.40;;;;;;6101015;23;20097;-75
2022/06/10 05:03:15;;;;;;;17.00;4.80;;;13.30;99.50;;;;;;6076918;23;20092;-76
2022/06/10 05:05:41;;;;;;;11.15;4.70;;;13.60;99.40;;;;;;6077171;23;20340;-76
2022/06/10 05:08:10;;;;;;;13.38;4.88;;;13.80;99.10;;;;;;6076964;23;20029;-76
2022/06/10 05:10:36;;;;;;;14.18;4.53;;;14.00;98.80;;;;;;6101014;23;20029;-76
2022/06/10 05:13:02;;;;;;;25.10;5.13;;;14.30;98.70;;;;;;6076642;23;20013;-76
2022/06/10 05:15:28;;;;;;;23.45;5.70;;;14.40;98.50;;;;;;6077012;23;20022;-76
2022/06/10 05:17:56;;;;;;;16.50;5.03;;;14.60;98.00;;;;;;6077102;23;20054;-76
2022/06/10 05:20:35;;;;;;;18.85;5.03;;;14.50;98.00;;;;;;6077137;23;20057;-76
2022/06/10 05:23:04;;;;;;;21.75;5.03;;;14.50;98.40;;;;;;6100932;23;20018;-76
2022/06/10 05:25:30;;;;;;;16.05;4.75;;;14.40;99.00;;;;;;6149883;23;20440;-76
2022/06/10 05:27:56;;;;;;;;;;;14.40;99.30;;;;;;6150545;23;20080;-76
2022/06/10 05:30:23;;;;;;;17.92;5.32;;;14.30;99.80;;;;;;6125485;23;19916;-76
2022/06/10 05:32:49;;;;;;;22.77;6.38;;;14.30;99.60;;;;;;6100707;23;20014;-76
2022/06/10 05:35:17;;;;;;;24.17;7.88;;;14.30;99.60;;;;;;6101006;23;20057;-76
2022/06/10 05:37:49;;;;;;;18.00;6.55;;;14.30;99.80;;;;;;6076579;23;20080;-75
2022/06/10 05:40:32;;;;;;;17.88;5.68;;;14.30;99.80;;;;;;6100157;23;20018;-76
2022/06/10 05:43:10;;;;;;;26.20;6.10;;;14.30;99.80;;;;;;6149577;23;20029;-77
2022/06/10 05:45:56;;;;;;;24.67;5.82;;;14.40;99.90;;;;;;6105769;23;20156;-80
2022/06/10 05:56:13;;;;;;;21.33;5.88;;;14.50;99.90;;;;;;6067134;23;20010;-78
2022/06/10 05:58:44;;;;;;;24.75;5.60;;;14.50;99.90;;;;;;6043772;23;20039;-77
2022/06/10 06:34:41;;;;;;;18.35;6.53;;;15.50;99.40;;;;;;5981771;24;20107;-76
2022/06/10 06:37:09;;;;;;;;;;;15.50;99.50;;;;;;5957124;24;20593;-79
2022/06/10 06:39:35;;;;;;;13.82;7.15;;;15.50;99.70;;;;;;5982887;23;19918;-78
2022/06/10 06:42:02;;;;;;;12.30;6.60;;;15.60;99.60;;;;;;6120587;23;20444;-78
2022/06/10 06:44:28;;;;;;;17.92;6.55;;;15.60;99.30;;;;;;6100492;23;20010;-76
2022/06/10 06:47:03;;;;;;;15.20;6.80;;;15.60;99.40;;;;;;6100496;23;20028;-78
2022/06/10 06:49:29;;;;;;;14.27;6.32;;;15.60;99.30;;;;;;6124696;23;20014;-74
2022/06/10 06:51:56;;;;;;;12.80;6.20;;;15.60;99.50;;;;;;6149389;23;20068;-73
2022/06/10 06:54:21;;;;;;;;;;;15.60;99.40;;;;;;6126887;23;20337;-73
2022/06/10 06:56:48;;;;;;;17.00;6.78;;;15.60;99.40;;;;;;6100709;23;19927;-75
2022/06/10 06:59:21;;;;;;;13.75;7.10;;;15.60;99.70;;;;;;6100481;23;20025;-79
2022/06/10 07:02:12;;;;;;;11.98;6.32;;;15.60;99.60;;;;;;6098707;23;20097;-78
2022/06/10 07:04:56;;;;;;;15.48;6.78;;;15.60;99.90;;;;;;6103716;23;20020;-78
2022/06/10 07:07:28;;;;;;;13.52;6.63;;;15.60;99.70;;;;;;6076703;23;20022;-74
2022/06/10 07:09:54;;;;;;;11.77;7.10;;;15.60;99.90;;;;;;6100443;23;20093;-78
2022/06/10 07:12:43;;;;;;;14.18;7.55;;;15.70;99.80;;;;;;6076427;23;20429;-83
2022/06/10 07:15:12;;;;;;;14.25;7.07;;;15.80;99.80;;;;;;6069335;23;20010;-82
2022/06/10 07:17:43;;;;;;;15.07;7.50;;;15.80;99.90;;;;;;6100501;23;20396;-79
2022/06/10 07:20:21;;;;;;;11.80;7.47;;;15.90;99.80;;;;;;6076473;23;20395;-76
2022/06/10 07:22:47;;;;;;;11.82;7.03;;;15.90;99.90;;;;;;6100738;23;20018;-76
2022/06/10 07:25:14;;;;;;;13.35;6.30;;;15.90;99.90;;;;;;6100936;23;20014;-79
2022/06/10 07:28:08;;;;;;;9.50;6.47;;;16.00;99.90;;;;;;6099806;23;20337;-85
2022/06/10 07:30:58;;;;;;;13.05;7.40;;;16.00;99.90;;;;;;6099237;23;20089;-81
2022/06/10 07:33:40;;;;;;;;;;;;;;;;;;;;;
2022/06/10 07:36:07;;;;;;;11.18;6.97;;;15.90;99.90;;;;;;6099952;23;20069;-76
2022/06/10 07:38:42;;;;;;;10.43;7.50;;;15.90;99.90;;;;;;6125621;23;20028;-78
2022/06/10 07:44:13;;;;;;;15.07;7.55;;;15.80;99.90;;;;;;6124294;23;20449;-78
2022/06/10 07:50:30;;;;;;;14.25;9.55;;;15.80;99.90;;;;;;6093382;23;20058;-80
2022/06/10 07:52:56;;;;;;;17.70;9.52;;;15.80;99.90;;;;;;6093960;23;20019;-79
2022/06/10 07:55:28;;;;;;;21.30;10.85;;;15.80;99.90;;;;;;6069754;23;20461;-75
2022/06/10 07:57:54;;;;;;;20.45;11.07;;;15.80;99.90;;;;;;6093652;23;20073;-78
2022/06/10 08:01:17;;;;;;;23.10;11.88;;;15.70;99.90;;;;;;6069494;23;20462;-76
2022/06/10 08:03:46;;;;;;;19.73;11.25;;;15.70;99.90;;;;;;5984104;23;20012;-77
2022/06/10 08:13:18;;;;;;;20.38;10.57;;;16.10;99.90;;;;;;6036737;23;20074;-78
2022/06/10 08:15:55;;;;;;;18.02;8.70;;;16.10;99.90;;;;;;6126852;23;20016;-78
2022/06/10 08:18:33;;;;;;;;;;;16.20;99.90;;;;;;6100796;23;20010;-77
2022/06/10 08:27:03;;;;;;;17.48;10.30;;;16.50;99.90;;;;;;6064662;23;20027;-78
2022/06/10 08:29:29;;;;;;;22.70;10.20;;;16.50;99.70;;;;;;6070766;23;20131;-77
2022/06/10 08:32:00;;;;;;;22.23;11.38;;;16.40;99.60;;;;;;6047063;23;20073;-78
2022/06/10 08:34:34;;;;;;;22.77;10.70;;;16.30;99.60;;;;;;6046850;23;20394;-77
2022/06/10 08:37:01;;;;;;;18.73;9.95;;;16.30;99.40;;;;;;6070569;23;20322;-77
2022/06/10 08:39:44;;;;;;;23.23;10.77;;;16.30;99.40;;;;;;6069336;23;20130;-77
2022/06/10 08:42:41;;;;;;;27.33;11.88;;;16.30;99.30;;;;;;6070635;23;20021;-77
2022/06/10 08:45:48;;;;;;;22.13;9.75;;;16.50;99.40;;;;;;6070258;23;20014;-77
2022/06/10 08:48:57;;;;;;;23.95;9.98;;;16.60;99.30;;;;;;6070965;23;20025;-77
2022/06/10 08:51:50;;;;;;;21.48;10.75;;;16.90;99.10;;;;;;6070899;23;20562;-77
2022/06/10 08:55:00;;;;;;;20.70;9.45;;;17.10;98.80;;;;;;6080121;23;20013;-77
2022/06/10 08:57:54;;;;;;;29.85;11.27;;;17.10;98.00;;;;;;6048452;23;20014;-77
2022/06/10 09:00:37;;;;;;;24.55;10.38;;;17.10;97.70;;;;;;6124738;23;20474;-77
2022/06/10 09:03:29;;;;;;;28.83;10.38;;;17.20;97.80;;;;;;6125091;23;20061;-77
2022/06/10 09:06:15;;;;;;;26.13;9.95;;;17.40;97.60;;;;;;6121551;23;20084;-77
2022/06/10 09:08:46;;;;;;;21.42;9.95;;;17.60;97.90;;;;;;6125417;23;20018;-76
2022/06/10 09:11:35;;;;;;;27.92;11.23;;;17.60;97.60;;;;;;6125134;23;20014;-76
2022/06/10 09:14:27;;;;;;;27.55;10.13;;;17.60;96.50;;;;;;6101096;23;20041;-76
2022/06/10 09:17:20;;;;;;;25.88;9.85;;;17.60;97.10;;;;;;6126172;23;20010;-75
2022/06/10 09:20:09;;;;;;;25.02;10.45;;;17.60;96.50;;;;;;6125338;23;20022;-74
2022/06/10 09:22:56;;;;;;;22.40;9.27;;;17.70;95.90;;;;;;6090425;23;20344;-75
2022/06/10 09:25:39;;;;;;;24.65;9.68;;;17.80;96.20;;;;;;6125313;23;20018;-76
2022/06/10 09:28:15;;;;;;;22.30;8.82;;;17.90;95.70;;;;;;6100967;23;20025;-77
2022/06/10 09:31:04;;;;;;;18.83;8.02;;;18.00;96.20;;;;;;6125370;23;20337;-77
2022/06/10 09:34:00;;;;;;;23.05;8.95;;;18.20;95.50;;;;;;6100755;23;20077;-77
2022/06/10 09:36:38;;;;;;;24.75;9.02;;;18.30;94.90;;;;;;6099042;23;20105;-77
2022/06/10 09:42:34;;;;;;;23.88;10.98;;;18.30;95.00;;;;;;6124776;23;20337;-78
2022/06/10 09:45:32;;;;;;;26.25;9.93;;;18.20;94.60;;;;;;6102873;23;20150;-81
2022/06/10 09:48:01;;;;;;;24.60;9.85;;;18.20;94.50;;;;;;6100103;23;20014;-77
2022/06/10 09:51:15;;;;;;;22.95;9.82;;;18.10;94.60;;;;;;6100303;23;20104;-76
2022/06/10 09:54:05;;;;;;;27.67;10.10;;;18.10;94.80;;;;;;6100348;23;20101;-77
2022/06/10 09:57:23;;;;;;;27.33;9.55;;;18.00;94.90;;;;;;6103595;23;20021;-77
2022/06/10 10:00:15;;;;;;;23.60;8.20;;;18.00;94.50;;;;;;6141540;23;20448;-75
2022/06/10 10:03:25;;;;;;;18.35;8.45;;;17.90;94.30;;;;;;6126239;23;20742;-77
2022/06/10 10:05:56;;;;;;;20.13;8.40;;;17.90;94.50;;;;;;6100881;23;20049;-77
2022/06/10 10:08:52;;;;;;;22.45;9.85;;;17.80;95.20;;;;;;6124687;23;20415;-76
2022/06/10 10:11:46;;;;;;;21.15;9.40;;;17.80;95.20;;;;;;6126732;23;20014;-76
2022/06/10 10:14:27;;;;;;;19.40;8.45;;;17.80;95.10;;;;;;6126199;23;20014;-76
2022/06/10 10:17:32;;;;;;;19.80;8.70;;;17.80;95.20;;;;;;6125050;23;20089;-77
2022/06/10 10:20:09;;;;;;;17.15;8.60;;;17.70;95.30;;;;;;6100123;23;20022;-75
2022/06/10 10:22:54;;;;;;;18.58;8.57;;;17.70;95.20;;;;;;6124307;23;20072;-77
2022/06/10 10:25:28;;;;;;;19.40;7.95;;;17.70;95.30;;;;;;6099944;23;20018;-75
2022/06/10 10:28:38;;;;;;;23.45;8.35;;;17.80;95.40;;;;;;6124478;23;20025;-78
2022/06/10 10:31:23;;;;;;;18.95;7.45;;;17.70;95.60;;;;;;6125790;23;20018;-75
2022/06/10 10:34:22;;;;;;;18.33;8.20;;;17.80;95.50;;;;;;6126336;23;20010;-75
2022/06/10 10:36:51;;;;;;;20.17;7.25;;;17.90;95.10;;;;;;6122858;23;20018;-75
2022/06/10 10:39:27;;;;;;;27.17;7.68;;;18.00;94.90;;;;;;6127315;23;20432;-72
2022/06/10 10:42:13;;;;;;;18.50;6.90;;;17.90;94.80;;;;;;6126488;23;20029;-75
2022/06/10 10:44:47;;;;;;;18.90;8.75;;;18.00;95.80;;;;;;6126176;23;20013;-74
2022/06/10 10:47:12;;;;;;;21.10;8.57;;;18.20;96.10;;;;;;6100652;23;20020;-75
2022/06/10 10:50:19;;;;;;;22.20;8.68;;;18.40;95.70;;;;;;6121786;23;20089;-79
2022/06/10 10:52:46;;;;;;;22.92;9.90;;;18.40;95.40;;;;;;6098734;23;20025;-74
2022/06/10 10:55:12;;;;;;;21.15;9.80;;;18.40;95.10;;;;;;6095783;23;20049;-70
2022/06/10 10:57:52;;;;;;;22.60;11.63;;;18.40;95.10;;;;;;6124852;23;20348;-77
2022/06/10 11:00:21;;;;;;;21.27;11.60;;;18.50;95.20;;;;;;6100123;23;20045;-77
2022/06/10 11:02:56;;;;;;;21.67;12.13;;;18.60;94.70;;;;;;6100086;23;20045;-76
2022/06/10 11:05:52;;;;;;;;;;;;;;;;;;;;;
2022/06/10 11:08:50;;;;;;;16.30;10.70;;;18.90;94.10;;;;;;6124173;23;20029;-80
2022/06/10 11:11:40;;;;;;;22.55;10.43;;;19.10;94.20;;;;;;6125043;23;20018;-75
2022/06/10 11:14:31;;;;;;;19.75;8.95;;;19.20;94.20;;;;;;6148799;23;20014;-73
2022/06/10 11:17:20;;;;;;;14.55;8.82;;;19.30;93.90;;;;;;6124583;23;20014;-74
2022/06/10 11:42:31;;;;;;;11.68;6.78;;;19.20;93.80;;;;;;6124559;23;20117;-76
2022/06/10 11:45:19;;;;;;;12.27;6.68;;;19.30;94.00;;;;;;6100623;23;20025;-74
2022/06/10 11:47:48;;;;;;;20.02;7.25;;;19.30;93.70;;;;;;6125719;23;20014;-75
2022/06/10 11:50:50;;;;;;;18.45;6.70;;;19.30;93.60;;;;;;6125983;23;20014;-76
2022/06/10 11:53:22;;;;;;;16.35;7.03;;;19.10;93.80;;;;;;6125210;23;20022;-76
2022/06/10 11:59:42;;;;;;;15.23;6.35;;;18.90;93.40;;;;;;6125640;23;20014;-76
2022/06/10 12:01:29;;;;;;;16.88;5.75;;;19.70;93.40;;;;;;6124521;23;20586;-74
2022/06/10 12:07:07;;;;;;;15.90;5.47;;;20.40;91.00;;;;;;6150219;23;20014;-75
2022/06/10 12:09:45;;;;;;;17.17;5.88;;;20.50;91.20;;;;;;6103701;23;20009;-76
2022/06/10 12:12:22;;;;;;;12.05;4.85;;;20.70;91.30;;;;;;6127935;23;20467;-78
2022/06/10 12:14:51;;;;;;;15.48;5.65;;;20.60;90.60;;;;;;6127439;23;20050;-77
2022/06/10 12:17:29;;;;;;;8.98;4.22;;;20.40;90.70;;;;;;6126976;23;20429;-78
2022/06/10 12:19:57;;;;;;;11.18;4.18;;;20.30;91.10;;;;;;6126507;23;20045;-77
2022/06/10 12:22:26;;;;;;;6.78;2.67;;;20.40;91.30;;;;;;6125846;23;20018;-76
2022/06/10 12:24:53;;;;;;;10.63;2.67;;;20.50;90.80;;;;;;6101685;23;20010;-78
2022/06/10 12:27:38;;;;;;;9.25;2.45;;;20.40;90.60;;;;;;6126136;23;20010;-77
2022/06/10 12:30:10;;;;;;;7.45;2.05;;;20.60;90.60;;;;;;6126072;23;20020;-77
2022/06/10 12:33:26;;;;;;;8.10;2.72;;;20.80;89.80;;;;;;6125598;23;20013;-77
2022/06/10 12:35:56;;;;;;;13.43;2.58;;;20.90;89.10;;;;;;6100908;23;20336;-78
2022/06/10 12:38:30;;;;;;;7.68;2.13;;;21.10;88.80;;;;;;6125384;23;20025;-78
2022/06/10 12:40:58;;;;;;;8.93;3.10;;;21.10;87.70;;;;;;6101737;23;20030;-78
2022/06/10 12:43:33;;;;;;;7.97;3.15;;;21.00;88.40;;;;;;6126327;23;20081;-76
2022/06/10 12:46:13;;;;;;;10.55;3.17;;;20.90;88.70;;;;;;6125933;23;20084;-78
2022/06/10 12:48:48;;;;;;;10.40;3.20;;;20.80;88.90;;;;;;6101423;23;20018;-78
2022/06/10 12:51:43;;;;;;;10.80;2.70;;;20.80;88.30;;;;;;6126662;23;20014;-77
2022/06/10 12:54:46;;;;;;;11.02;2.80;;;21.00;87.20;;;;;;6125919;23;20243;-78
2022/06/10 13:21:31;;;;;;;11.65;2.75;;;21.60;76.00;;;;;;6112317;23;20024;-78
2022/06/10 13:24:00;;;;;;;15.45;3.78;;;21.60;78.20;;;;;;6183097;23;20340;-75
2022/06/10 13:26:28;;;;;;;10.88;3.15;;;21.60;81.40;;;;;;6183162;23;20366;-72
2022/06/10 13:29:25;;;;;;;15.18;3.35;;;21.40;81.10;;;;;;6157696;23;20024;-74
2022/06/10 13:31:58;;;;;;;11.23;2.70;;;21.60;80.40;;;;;;6157830;23;20013;-77
2022/06/10 13:34:33;;;;;;;11.82;2.85;;;21.60;79.10;;;;;;6157963;23;20013;-78
2022/06/10 13:37:38;;;;;;;11.02;2.80;;;21.80;78.20;;;;;;6182398;23;20017;-75
2022/06/10 13:40:19;;;;;;;10.55;3.28;;;21.90;77.80;;;;;;6100368;23;20021;-73
2022/06/10 13:42:56;;;;;;;;;;;;;;;;;;;;;
2022/06/10 13:46:13;;;;;;;;;;;;;;;;;;;;;
2022/06/10 13:49:44;;;;;;;14.27;3.90;;;21.50;78.90;;;;;;6118910;23;20015;-75
2022/06/10 13:53:09;;;;;;;14.20;3.40;;;21.50;79.60;;;;;;6181236;23;20073;-75
2022/06/10 13:59:51;;;;;;;13.07;3.70;;;21.60;80.30;;;;;;6182556;23;20023;-80
2022/06/10 14:02:44;;;;;;;14.60;3.67;;;21.60;80.60;;;;;;6155686;23;20013;-75
2022/06/10 14:05:18;;;;;;;16.85;4.38;;;21.50;79.70;;;;;;6157513;23;20012;-80
2022/06/10 14:07:45;;;;;;;8.65;3.10;;;21.40;80.30;;;;;;6158589;23;20017;-78
2022/06/10 14:10:22;;;;;;;13.15;3.50;;;21.40;79.10;;;;;;6158562;23;20009;-79
2022/06/10 14:33:20;;;;;;;18.25;5.03;;;22.30;78.70;;;;;;6173419;23;20032;-75
2022/06/10 14:36:25;;;;;;;21.65;5.25;;;22.40;77.80;;;;;;6158734;23;20027;-74
2022/06/10 14:39:09;;;;;;;14.52;4.47;;;22.50;78.00;;;;;;6160608;23;20013;-74
2022/06/10 14:42:22;;;;;;;17.52;4.28;;;22.70;77.00;;;;;;6160601;23;20413;-74
2022/06/10 14:45:19;;;;;;;19.52;4.28;;;22.70;77.50;;;;;;6136066;23;20028;-77
2022/06/10 14:48:10;;;;;;;18.33;4.28;;;22.70;77.80;;;;;;6159947;23;20021;-77
2022/06/10 14:51:21;;;;;;;17.08;3.92;;;22.80;75.90;;;;;;6160275;23;20021;-75
2022/06/10 14:54:06;;;;;;;18.88;4.80;;;22.90;75.40;;;;;;6160763;23;20021;-75
2022/06/10 14:56:42;;;;;;;16.70;3.33;;;23.00;75.00;;;;;;6160991;23;20436;-75
2022/06/10 14:59:19;;;;;;;17.05;4.15;;;22.90;72.80;;;;;;6160843;23;20024;-75
2022/06/10 15:01:44;;;;;;;15.00;3.42;;;22.80;72.90;;;;;;6136049;23;20495;-74
2022/06/10 15:04:14;;;;;;;17.70;4.20;;;22.70;73.70;;;;;;6160541;23;20020;-75
2022/06/10 15:06:43;;;;;;;16.17;4.47;;;22.70;73.60;;;;;;6160702;23;20024;-74
2022/06/10 15:09:28;;;;;;;19.10;4.22;;;23.00;74.40;;;;;;6136069;23;20447;-74
2022/06/10 15:11:56;;;;;;;18.17;3.67;;;23.20;72.60;;;;;;6160054;23;20071;-75
2022/06/10 15:14:22;;;;;;;19.20;3.42;;;23.50;72.20;;;;;;6135671;23;20444;-75
2022/06/10 15:20:47;;;;;;;16.20;4.03;;;24.10;67.70;;;;;;6174069;23;20472;-75
2022/06/10 15:23:15;;;;;;;16.35;4.10;;;24.60;65.60;;;;;;6160473;23;20013;-75
2022/06/10 15:25:44;;;;;;;17.13;3.20;;;24.90;64.60;;;;;;6135764;23;20025;-75
2022/06/10 15:28:19;;;;;;;15.63;3.30;;;24.90;64.40;;;;;;6160284;23;20084;-74
2022/06/10 15:30:46;;;;;;;16.15;3.28;;;25.10;62.80;;;;;;6160243;23;20491;-74
2022/06/10 15:33:12;;;;;;;15.27;3.17;;;25.00;63.50;;;;;;6135515;23;20017;-75
2022/06/10 15:41:16;;;;;;;18.40;3.40;;;25.20;60.50;;;;;;6160365;23;20028;-74
2022/06/10 15:43:42;;;;;;;12.82;2.95;;;25.40;61.80;;;;;;6135252;23;20021;-74
2022/06/10 15:46:18;;;;;;;13.95;3.05;;;25.00;61.20;;;;;;6160330;23;20028;-74
2022/06/10 15:48:45;;;;;;;14.82;3.05;;;24.60;62.00;;;;;;6186552;23;20024;-74
2022/06/10 15:51:31;;;;;;;9.57;2.80;;;24.50;62.80;;;;;;6160200;23;20096;-75
2022/06/10 15:54:01;;;;;;;12.05;3.35;;;24.50;63.10;;;;;;6160331;23;20032;-75
2022/06/10 15:59:21;;;;;;;11.23;2.70;;;24.00;64.20;;;;;;6160281;23;20017;-75
2022/06/10 16:01:47;;;;;;;15.10;3.33;;;23.90;65.20;;;;;;6160292;23;20013;-75
2022/06/10 16:04:31;;;;;;;9.55;2.85;;;23.80;64.80;;;;;;6135633;23;20064;-74
2022/06/10 16:06:57;;;;;;;11.02;2.80;;;24.40;64.30;;;;;;6160288;23;20017;-75
2022/06/10 16:09:22;;;;;;;10.98;2.35;;;25.10;63.10;;;;;;6135636;23;20021;-74
2022/06/10 16:14:37;;;;;;;13.35;2.70;;;26.10;60.00;;;;;;6160005;23;20455;-75
2022/06/10 16:17:04;;;;;;;10.40;2.47;;;26.30;58.60;;;;;;6135098;23;20017;-75